This is the latest recevied weather packets stored in our database for station/object ED4YAZ-13. If no packets are shown the sender has not sent any weather packets the latest 10 day(s).
| Time | Temp. | Humidity | Pressure | Rain* | Wind** | Luminosity | Snow |
|---|---|---|---|---|---|---|---|
| 1777603201 | 12.22° C | 78% | 1018.8 hPa | - | - | - | - |
| 1777602609 | 12.22° C | 76% | 1018.9 hPa | - | - | - | - |
| 1777602001 | 12.22° C | 74% | 1019 hPa | - | - | - | - |
| 1777601401 | 12.78° C | 71% | 1018.9 hPa | - | - | - | - |
| 1777600801 | 12.22° C | 70% | 1019.1 hPa | - | - | - | - |
| 1777600201 | 12.22° C | 67% | 1019.1 hPa | - | - | - | - |
| 1777599086 | 12.78° C | 63% | 1019 hPa | - | - | - | - |
| 1777598486 | 13.33° C | 60% | 1018.7 hPa | - | - | - | - |
| 1777597880 | 13.89° C | 59% | 1018.4 hPa | - | - | - | - |
| 1777597287 | 13.89° C | 58% | 1018.4 hPa | - | - | - | - |
| 1777597280 | 13.89° C | 58% | 1018.4 hPa | - | - | - | - |
| 1777596680 | 14.44° C | 57% | 1018.5 hPa | - | - | - | - |
| 1777596087 | 14.44° C | 56% | 1018.4 hPa | - | - | - | - |
| 1777596080 | 14.44° C | 56% | 1018.4 hPa | - | - | - | - |
| 1777595467 | 13.89° C | 56% | 1018.6 hPa | - | - | - | - |
| 1777595467 | 13.89° C | 56% | 1018.6 hPa | - | - | - | - |
| 1777594867 | 13.89° C | 55% | 1018.7 hPa | - | - | - | - |
| 1777594867 | 13.89° C | 55% | 1018.7 hPa | - | - | - | - |
| 1777594267 | 13.89° C | 55% | 1018.8 hPa | - | - | - | - |
| 1777593667 | 13.89° C | 53% | 1018.7 hPa | - | - | - | - |
| 1777593667 | 13.89° C | 53% | 1018.7 hPa | - | - | - | - |
| 1777593058 | 14.44° C | 50% | 1018.6 hPa | - | - | - | - |
| 1777593058 | 14.44° C | 50% | 1018.6 hPa | - | - | - | - |
| 1777591858 | 15° C | 47% | 1018.1 hPa | - | - | - | - |
| 1777591858 | 15° C | 47% | 1018.1 hPa | - | - | - | - |
* Rain since midnight (hover to see other rain measurements)
** Current wind speed in m/s (hover to see current wind gust speed)